Time,TemperatureF,DewpointF,PressureIn,WindDirection,WindDirectionDegrees,WindSpeedMPH,WindSpeedGustMPH,Humidity,HourlyPrecipIn,Conditions,Clouds,dailyrainin,SoftwareType,DateUTC
2013-03-18 00:00:00,15.1,-2.0,30.34,NW,305,7.0,15.0,48,0.00,,,0.00,weatherlink.com 1.10,2013-03-18 04:00:00,
2013-03-18 00:15:00,15.2,-3.0,30.35,West,259,5.0,9.0,45,0.00,,,0.00,weatherlink.com 1.10,2013-03-18 04:15:00,
2013-03-18 00:29:00,15.4,-4.0,30.36,WSW,246,0.0,12.0,43,0.00,,,0.00,weatherlink.com 1.10,2013-03-18 04:29:00,
2013-03-18 00:44:00,14.9,-5.0,30.36,NW,315,7.0,14.0,42,0.00,,,0.00,weatherlink.com 1.10,2013-03-18 04:44:00,
2013-03-18 01:00:00,14.2,-4.0,30.38,WNW,289,5.0,17.0,45,0.00,,,0.00,weatherlink.com 1.10,2013-03-18 05:00:00,
2013-03-18 01:15:00,13.8,-4.0,30.39,South,178,4.0,10.0,46,0.00,,,0.00,weatherlink.com 1.10,2013-03-18 05:15:00,
2013-03-18 01:30:00,13.9,-4.0,30.38,ESE,121,2.0,10.0,45,0.00,,,0.00,weatherlink.com 1.10,2013-03-18 05:30:00,
2013-03-18 01:45:00,14.4,-5.0,30.38,NNW,330,9.0,13.0,42,0.00,,,0.00,weatherlink.com 1.10,2013-03-18 05:45:00,
2013-03-18 02:00:00,14.4,-4.0,30.39,WNW,286,2.0,10.0,45,0.00,,,0.00,weatherlink.com 1.10,2013-03-18 06:00:00,
2013-03-18 02:15:00,14.3,-4.0,30.39,SW,230,2.0,6.0,45,0.00,,,0.00,weatherlink.com 1.10,2013-03-18 06:15:00,
2013-03-18 02:30:00,14.0,-3.0,30.40,SW,231,5.0,6.0,46,0.00,,,0.00,weatherlink.com 1.10,2013-03-18 06:30:00,
2013-03-18 02:45:00,13.4,-3.0,30.39,WSW,249,5.0,9.0,48,0.00,,,0.00,weatherlink.com 1.10,2013-03-18 06:45:00,
2013-03-18 03:00:00,12.1,-4.0,30.40,WNW,288,4.0,8.0,48,0.00,,,0.00,weatherlink.com 1.10,2013-03-18 07:00:00,
2013-03-18 03:15:00,12.1,-4.0,30.40,West,281,7.0,9.0,48,0.00,,,0.00,weatherlink.com 1.10,2013-03-18 07:15:00,
2013-03-18 03:30:00,12.2,-4.0,30.40,West,276,6.0,10.0,49,0.00,,,0.00,weatherlink.com 1.10,2013-03-18 07:30:00,
2013-03-18 03:45:00,11.9,-4.0,30.40,West,276,6.0,8.0,50,0.00,,,0.00,weatherlink.com 1.10,2013-03-18 07:45:00,
2013-03-18 04:00:00,13.4,-3.0,30.40,SW,226,3.0,6.0,49,0.00,,,0.00,weatherlink.com 1.10,2013-03-18 08:00:00,
2013-03-18 04:15:00,13.5,-3.0,30.41,SW,221,3.0,6.0,49,0.00,,,0.00,weatherlink.com 1.10,2013-03-18 08:15:00,
2013-03-18 04:31:00,13.7,-2.0,30.41,SW,225,0.0,6.0,49,0.00,,,0.00,weatherlink.com 1.10,2013-03-18 08:31:00,
2013-03-18 04:46:00,13.7,-2.0,30.42,SSW,210,3.0,5.0,49,0.00,,,0.00,weatherlink.com 1.10,2013-03-18 08:46:00,
2013-03-18 05:01:00,14.0,-2.0,30.43,SW,220,4.0,7.0,49,0.00,,,0.00,weatherlink.com 1.10,2013-03-18 09:01:00,
2013-03-18 05:16:00,13.9,-2.0,30.43,SW,231,4.0,5.0,49,0.00,,,0.00,weatherlink.com 1.10,2013-03-18 09:16:00,
2013-03-18 05:31:00,13.6,-2.0,30.43,SW,216,7.0,7.0,50,0.00,,,0.00,weatherlink.com 1.10,2013-03-18 09:31:00,
2013-03-18 05:46:00,13.3,-3.0,30.44,WSW,240,9.0,9.0,49,0.00,,,0.00,weatherlink.com 1.10,2013-03-18 09:46:00,
2013-03-18 06:01:00,13.3,-3.0,30.45,West,270,4.0,9.0,49,0.00,,,0.00,weatherlink.com 1.10,2013-03-18 10:01:00,
2013-03-18 06:16:00,13.1,-2.0,30.45,West,269,6.0,9.0,50,0.00,,,0.00,weatherlink.com 1.10,2013-03-18 10:16:00,
2013-03-18 06:31:00,11.9,-3.0,30.45,West,261,1.0,7.0,52,0.00,,,0.00,weatherlink.com 1.10,2013-03-18 10:31:00,
2013-03-18 06:46:00,11.8,-3.0,30.46,West,272,4.0,7.0,52,0.00,,,0.00,weatherlink.com 1.10,2013-03-18 10:46:00,
2013-03-18 07:02:00,12.2,-3.0,30.46,West,274,3.0,9.0,51,0.00,,,0.00,weatherlink.com 1.10,2013-03-18 11:02:00,
2013-03-18 07:16:00,12.1,-3.0,30.47,West,274,6.0,9.0,52,0.00,,,0.00,weatherlink.com 1.10,2013-03-18 11:16:00,
2013-03-18 07:31:00,11.9,-3.0,30.48,West,274,5.0,8.0,52,0.00,,,0.00,weatherlink.com 1.10,2013-03-18 11:31:00,
2013-03-18 07:46:00,11.9,-2.0,30.47,West,274,2.0,4.0,53,0.00,,,0.00,weatherlink.com 1.10,2013-03-18 11:46:00,
2013-03-18 08:02:00,12.8,-2.0,30.48,West,274,4.0,5.0,51,0.00,,,0.00,weatherlink.com 1.10,2013-03-18 12:02:00,
2013-03-18 08:17:00,13.4,-2.0,30.48,West,274,4.0,7.0,50,0.00,,,0.00,weatherlink.com 1.10,2013-03-18 12:17:00,
2013-03-18 08:32:00,14.0,-3.0,30.48,West,274,3.0,7.0,48,0.00,,,0.00,weatherlink.com 1.10,2013-03-18 12:32:00,
2013-03-18 08:47:00,14.2,-2.0,30.48,West,275,3.0,7.0,48,0.00,,,0.00,weatherlink.com 1.10,2013-03-18 12:47:00,
2013-03-18 09:02:00,14.3,-2.0,30.48,WNW,291,3.0,9.0,48,0.00,,,0.00,weatherlink.com 1.10,2013-03-18 13:02:00,
2013-03-18 09:17:00,16.1,-1.0,30.48,WNW,294,4.0,8.0,48,0.00,,,0.00,weatherlink.com 1.10,2013-03-18 13:17:00,
2013-03-18 09:32:00,16.9,1.0,30.48,NW,304,4.0,7.0,49,0.00,,,0.00,weatherlink.com 1.10,2013-03-18 13:32:00,
2013-03-18 09:47:00,17.7,0.0,30.49,WNW,302,3.0,9.0,46,0.00,,,0.00,weatherlink.com 1.10,2013-03-18 13:47:00,
2013-03-18 10:02:00,18.4,0.0,30.49,WSW,246,0.0,9.0,45,0.00,,,0.00,weatherlink.com 1.10,2013-03-18 14:02:00,
2013-03-18 10:17:00,19.6,0.0,30.49,West,260,3.0,8.0,42,0.00,,,0.00,weatherlink.com 1.10,2013-03-18 14:17:00,
2013-03-18 10:32:00,20.5,0.0,30.49,West,279,0.0,8.0,41,0.00,,,0.00,weatherlink.com 1.10,2013-03-18 14:32:00,
2013-03-18 10:47:00,21.5,1.0,30.48,WSW,240,8.0,8.0,40,0.00,,,0.00,weatherlink.com 1.10,2013-03-18 14:47:00,
2013-03-18 11:02:00,21.8,2.0,30.48,WSW,250,3.0,10.0,42,0.00,,,0.00,weatherlink.com 1.10,2013-03-18 15:02:00,
2013-03-18 11:18:00,22.7,1.0,30.47,WSW,238,3.0,8.0,38,0.00,,,0.00,weatherlink.com 1.10,2013-03-18 15:18:00,
2013-03-18 11:33:00,23.5,1.0,30.47,SW,223,2.0,8.0,37,0.00,,,0.00,weatherlink.com 1.10,2013-03-18 15:33:00,
2013-03-18 11:48:00,24.2,2.0,30.47,WNW,298,2.0,9.0,38,0.00,,,0.00,weatherlink.com 1.10,2013-03-18 15:48:00,
2013-03-18 12:03:00,25.4,3.0,30.47,WNW,284,1.0,7.0,38,0.00,,,0.00,weatherlink.com 1.10,2013-03-18 16:03:00,
2013-03-18 12:18:00,26.0,2.0,30.46,SW,227,0.0,9.0,35,0.00,,,0.00,weatherlink.com 1.10,2013-03-18 16:18:00,
2013-03-18 12:33:00,26.6,1.0,30.46,SSW,206,2.0,7.0,33,0.00,,,0.00,weatherlink.com 1.10,2013-03-18 16:33:00,
2013-03-18 12:48:00,27.3,2.0,30.45,WNW,290,0.0,10.0,33,0.00,,,0.00,weatherlink.com 1.10,2013-03-18 16:48:00,
2013-03-18 13:03:00,28.1,-1.0,30.45,WSW,250,3.0,7.0,28,0.00,,,0.00,weatherlink.com 1.10,2013-03-18 17:03:00,
2013-03-18 13:18:00,28.9,1.0,30.45,NW,313,3.0,6.0,30,0.00,,,0.00,weatherlink.com 1.10,2013-03-18 17:18:00,
2013-03-18 13:33:00,29.4,1.0,30.43,SW,216,3.0,8.0,29,0.00,,,0.00,weatherlink.com 1.10,2013-03-18 17:33:00,
2013-03-18 13:48:00,29.9,4.0,30.43,NW,321,0.0,6.0,33,0.00,,,0.00,weatherlink.com 1.10,2013-03-18 17:48:00,
2013-03-18 14:03:00,30.7,5.0,30.42,ENE,71,0.0,5.0,34,0.00,,,0.00,weatherlink.com 1.10,2013-03-18 18:03:00,
2013-03-18 14:19:00,31.4,6.0,30.41,NW,323,0.0,6.0,34,0.00,,,0.00,weatherlink.com 1.10,2013-03-18 18:19:00,
2013-03-18 14:34:00,31.8,5.0,30.40,ESE,103,2.0,6.0,32,0.00,,,0.00,weatherlink.com 1.10,2013-03-18 18:34:00,
2013-03-18 14:49:00,33.3,6.0,30.40,East,93,0.0,2.0,32,0.00,,,0.00,weatherlink.com 1.10,2013-03-18 18:49:00,
2013-03-18 15:19:00,33.2,7.0,30.39,NE,41,0.0,2.0,33,0.00,,,0.00,weatherlink.com 1.10,2013-03-18 19:19:00,
2013-03-18 15:34:00,33.2,5.0,30.39,NE,56,0.0,4.0,30,0.00,,,0.00,weatherlink.com 1.10,2013-03-18 19:34:00,
2013-03-18 15:49:00,32.9,4.0,30.38,East,81,0.0,4.0,29,0.00,,,0.00,weatherlink.com 1.10,2013-03-18 19:49:00,
2013-03-18 16:04:00,33.7,4.0,30.38,ESE,115,0.0,3.0,29,0.00,,,0.00,weatherlink.com 1.10,2013-03-18 20:04:00,
2013-03-18 16:20:00,33.7,4.0,30.37,East,84,2.0,5.0,28,0.01,,,0.01,weatherlink.com 1.10,2013-03-18 20:20:00,
2013-03-18 16:35:00,33.5,4.0,30.37,East,88,0.0,2.0,29,0.01,,,0.01,weatherlink.com 1.10,2013-03-18 20:35:00,
2013-03-18 16:50:00,33.1,3.0,30.37,East,83,0.0,4.0,28,0.01,,,0.01,weatherlink.com 1.10,2013-03-18 20:50:00,
2013-03-18 17:05:00,33.0,5.0,30.36,East,79,0.0,1.0,30,0.01,,,0.01,weatherlink.com 1.10,2013-03-18 21:05:00,
2013-03-18 17:20:00,33.4,3.0,30.35,East,79,0.0,1.0,28,0.00,,,0.01,weatherlink.com 1.10,2013-03-18 21:20:00,
2013-03-18 17:35:00,32.9,4.0,30.35,East,92,0.0,3.0,29,0.00,,,0.01,weatherlink.com 1.10,2013-03-18 21:35:00,
2013-03-18 17:50:00,32.4,5.0,30.35,East,93,0.0,2.0,31,0.00,,,0.01,weatherlink.com 1.10,2013-03-18 21:50:00,
2013-03-18 18:05:00,32.2,5.0,30.34,East,93,0.0,1.0,31,0.00,,,0.01,weatherlink.com 1.10,2013-03-18 22:05:00,
2013-03-18 18:20:00,31.6,3.0,30.32,East,80,0.0,5.0,30,0.00,,,0.01,weatherlink.com 1.10,2013-03-18 22:20:00,
2013-03-18 18:35:00,30.4,4.0,30.32,East,84,0.0,4.0,32,0.00,,,0.01,weatherlink.com 1.10,2013-03-18 22:35:00,
2013-03-18 18:50:00,29.9,3.0,30.32,East,84,0.0,1.0,32,0.00,,,0.01,weatherlink.com 1.10,2013-03-18 22:50:00,
2013-03-18 19:05:00,29.8,3.0,30.34,South,182,2.0,4.0,32,0.00,,,0.01,weatherlink.com 1.10,2013-03-18 23:05:00,
2013-03-18 19:20:00,29.7,3.0,30.34,SE,135,0.0,4.0,32,0.00,,,0.01,weatherlink.com 1.10,2013-03-18 23:20:00,
2013-03-18 19:36:00,28.4,1.0,30.33,SSW,207,2.0,7.0,30,0.00,,,0.01,weatherlink.com 1.10,2013-03-18 23:36:00,
2013-03-18 19:51:00,28.3,0.0,30.32,SSW,194,7.0,8.0,30,0.00,,,0.01,weatherlink.com 1.10,2013-03-18 23:51:00,
2013-03-18 20:51:00,27.9,4.0,30.33,South,178,3.0,9.0,36,0.00,,,0.01,weatherlink.com 1.10,2013-03-19 00:51:00,
2013-03-18 21:06:00,27.5,7.0,30.33,South,175,5.0,10.0,42,0.00,,,0.01,weatherlink.com 1.10,2013-03-19 01:06:00,
2013-03-18 21:21:00,26.9,13.0,30.32,SSE,157,5.0,10.0,55,0.00,,,0.01,weatherlink.com 1.10,2013-03-19 01:21:00,
2013-03-18 21:36:00,26.8,13.0,30.31,SSE,154,7.0,7.0,57,0.00,,,0.01,weatherlink.com 1.10,2013-03-19 01:36:00,
2013-03-18 21:51:00,26.9,13.0,30.31,SSE,155,6.0,7.0,56,0.00,,,0.01,weatherlink.com 1.10,2013-03-19 01:51:00,
2013-03-18 22:06:00,26.8,13.0,30.32,SSE,163,5.0,10.0,57,0.00,,,0.01,weatherlink.com 1.10,2013-03-19 02:06:00,
2013-03-18 22:21:00,26.8,13.0,30.32,SSE,158,3.0,9.0,57,0.00,,,0.01,weatherlink.com 1.10,2013-03-19 02:21:00,
2013-03-18 22:36:00,26.5,15.0,30.32,SSE,158,3.0,6.0,61,0.00,,,0.01,weatherlink.com 1.10,2013-03-19 02:36:00,
2013-03-18 22:51:00,26.3,15.0,30.33,SSE,157,3.0,7.0,63,0.00,,,0.01,weatherlink.com 1.10,2013-03-19 02:51:00,
2013-03-18 23:07:00,27.5,16.0,30.32,SE,131,4.0,6.0,63,0.00,,,0.01,weatherlink.com 1.10,2013-03-19 03:07:00,
2013-03-18 23:22:00,27.2,17.0,30.31,ESE,102,0.0,3.0,66,0.00,,,0.01,weatherlink.com 1.10,2013-03-19 03:22:00,
2013-03-18 23:52:00,27.0,19.0,30.30,SE,140,3.0,10.0,73,0.00,,,0.01,weatherlink.com 1.10,2013-03-19 03:52:00,